sensor_id;sensor_type;location;lat;lon;timestamp;pressure;altitude;pressure_sealevel;temperature;humidity
8581;BME280;4328;48.622;9.230;2022-08-21T00:02:22;98156.06;;;17.71;72.33
8581;BME280;4328;48.622;9.230;2022-08-21T00:04:50;98153.91;;;17.73;72.10
8581;BME280;4328;48.622;9.230;2022-08-21T00:07:18;98156.59;;;17.61;72.38
8581;BME280;4328;48.622;9.230;2022-08-21T00:09:46;98156.22;;;17.57;72.75
8581;BME280;4328;48.622;9.230;2022-08-21T00:12:13;98155.47;;;17.50;72.77
8581;BME280;4328;48.622;9.230;2022-08-21T00:14:40;98149.13;;;17.50;72.92
8581;BME280;4328;48.622;9.230;2022-08-21T00:17:07;98154.78;;;17.55;72.68
8581;BME280;4328;48.622;9.230;2022-08-21T00:19:34;98146.56;;;17.55;73.04
8581;BME280;4328;48.622;9.230;2022-08-21T00:22:01;98143.34;;;17.58;72.49
8581;BME280;4328;48.622;9.230;2022-08-21T00:24:27;98143.09;;;17.59;72.77
8581;BME280;4328;48.622;9.230;2022-08-21T00:26:55;98138.94;;;17.57;72.52
8581;BME280;4328;48.622;9.230;2022-08-21T00:29:22;98144.50;;;17.50;72.58
8581;BME280;4328;48.622;9.230;2022-08-21T00:31:49;98141.66;;;17.75;71.38
8581;BME280;4328;48.622;9.230;2022-08-21T00:34:16;98143.19;;;17.53;72.23
8581;BME280;4328;48.622;9.230;2022-08-21T00:36:42;98150.09;;;17.44;72.36
8581;BME280;4328;48.622;9.230;2022-08-21T00:39:09;98149.19;;;17.61;71.36
8581;BME280;4328;48.622;9.230;2022-08-21T00:41:37;98141.75;;;17.50;72.34
8581;BME280;4328;48.622;9.230;2022-08-21T00:44:06;98147.56;;;17.42;72.43
8581;BME280;4328;48.622;9.230;2022-08-21T00:46:34;98148.94;;;17.33;72.24
8581;BME280;4328;48.622;9.230;2022-08-21T00:49:00;98142.16;;;17.36;72.12
8581;BME280;4328;48.622;9.230;2022-08-21T00:51:32;98150.91;;;17.26;72.18
8581;BME280;4328;48.622;9.230;2022-08-21T00:54:02;98139.72;;;17.27;71.91
8581;BME280;4328;48.622;9.230;2022-08-21T00:56:29;98143.69;;;17.13;72.48
8581;BME280;4328;48.622;9.230;2022-08-21T00:58:57;98101.53;;;16.78;72.49
8581;BME280;4328;48.622;9.230;2022-08-21T01:01:27;98134.84;;;17.11;72.63
8581;BME280;4328;48.622;9.230;2022-08-21T01:03:53;98138.97;;;17.02;73.03
8581;BME280;4328;48.622;9.230;2022-08-21T01:06:20;98138.38;;;17.00;73.04
8581;BME280;4328;48.622;9.230;2022-08-21T01:08:47;98140.97;;;16.95;73.19
8581;BME280;4328;48.622;9.230;2022-08-21T01:11:15;98131.28;;;16.92;73.22
8581;BME280;4328;48.622;9.230;2022-08-21T01:13:42;98136.72;;;16.99;72.96
8581;BME280;4328;48.622;9.230;2022-08-21T01:16:13;98105.81;;;16.74;72.93
8581;BME280;4328;48.622;9.230;2022-08-21T01:18:43;98133.06;;;16.87;72.97
8581;BME280;4328;48.622;9.230;2022-08-21T01:21:14;98143.41;;;16.85;72.87
8581;BME280;4328;48.622;9.230;2022-08-21T01:23:43;98136.69;;;16.81;73.00
8581;BME280;4328;48.622;9.230;2022-08-21T01:26:11;98145.81;;;16.75;73.46
8581;BME280;4328;48.622;9.230;2022-08-21T01:28:42;98103.63;;;16.57;73.40
8581;BME280;4328;48.622;9.230;2022-08-21T01:31:12;98113.72;;;16.64;73.94
8581;BME280;4328;48.622;9.230;2022-08-21T01:33:40;98133.78;;;16.76;73.31
8581;BME280;4328;48.622;9.230;2022-08-21T01:36:07;98138.19;;;16.77;72.79
8581;BME280;4328;48.622;9.230;2022-08-21T01:38:36;98131.53;;;16.73;73.01
8581;BME280;4328;48.622;9.230;2022-08-21T01:41:02;98126.88;;;16.73;73.17
8581;BME280;4328;48.622;9.230;2022-08-21T01:43:29;98131.13;;;16.69;73.02
8581;BME280;4328;48.622;9.230;2022-08-21T01:45:55;98097.22;;;16.45;72.82
8581;BME280;4328;48.622;9.230;2022-08-21T01:48:22;98129.50;;;16.61;73.16
8581;BME280;4328;48.622;9.230;2022-08-21T01:50:49;98129.50;;;16.61;73.11
8581;BME280;4328;48.622;9.230;2022-08-21T01:53:16;98131.63;;;16.59;73.49
8581;BME280;4328;48.622;9.230;2022-08-21T01:55:44;98129.50;;;16.61;73.56
8581;BME280;4328;48.622;9.230;2022-08-21T01:58:11;98125.72;;;16.63;73.41
8581;BME280;4328;48.622;9.230;2022-08-21T02:00:38;98133.47;;;16.66;73.12
8581;BME280;4328;48.622;9.230;2022-08-21T02:03:04;98126.94;;;16.67;72.85
8581;BME280;4328;48.622;9.230;2022-08-21T02:05:31;98117.22;;;16.71;72.36
8581;BME280;4328;48.622;9.230;2022-08-21T02:07:58;98113.03;;;16.68;72.21
8581;BME280;4328;48.622;9.230;2022-08-21T02:10:31;98113.03;;;16.68;72.46
8581;BME280;4328;48.622;9.230;2022-08-21T02:13:00;98096.47;;;16.56;72.48
8581;BME280;4328;48.622;9.230;2022-08-21T02:15:27;98113.94;;;16.62;72.73
8581;BME280;4328;48.622;9.230;2022-08-21T02:17:57;98113.50;;;16.58;72.19
8581;BME280;4328;48.622;9.230;2022-08-21T02:20:26;98113.59;;;16.52;72.83
8581;BME280;4328;48.622;9.230;2022-08-21T02:22:53;98110.91;;;16.45;72.74
8581;BME280;4328;48.622;9.230;2022-08-21T02:25:21;98117.63;;;16.49;73.01
8581;BME280;4328;48.622;9.230;2022-08-21T02:27:49;98111.66;;;16.52;72.73
8581;BME280;4328;48.622;9.230;2022-08-21T02:30:19;98111.41;;;16.60;72.75
8581;BME280;4328;48.622;9.230;2022-08-21T02:32:46;98108.03;;;16.58;72.35
8581;BME280;4328;48.622;9.230;2022-08-21T02:35:13;98110.78;;;16.58;72.24
8581;BME280;4328;48.622;9.230;2022-08-21T02:37:45;98104.69;;;16.56;72.10
8581;BME280;4328;48.622;9.230;2022-08-21T02:40:13;98108.94;;;16.52;72.35
8581;BME280;4328;48.622;9.230;2022-08-21T02:42:40;98106.31;;;16.64;71.75
8581;BME280;4328;48.622;9.230;2022-08-21T02:45:07;98106.72;;;16.68;71.44
8581;BME280;4328;48.622;9.230;2022-08-21T02:47:35;98101.34;;;16.54;71.86
8581;BME280;4328;48.622;9.230;2022-08-21T02:50:03;98103.94;;;16.49;72.05
8581;BME280;4328;48.622;9.230;2022-08-21T02:52:30;98107.19;;;16.58;71.81
8581;BME280;4328;48.622;9.230;2022-08-21T02:54:57;98104.16;;;16.48;71.95
8581;BME280;4328;48.622;9.230;2022-08-21T02:57:24;98108.16;;;16.45;71.89
8581;BME280;4328;48.622;9.230;2022-08-21T02:59:50;98102.38;;;16.35;71.89
8581;BME280;4328;48.622;9.230;2022-08-21T03:02:17;98112.47;;;16.35;71.96
8581;BME280;4328;48.622;9.230;2022-08-21T03:04:45;98099.25;;;16.32;71.86
8581;BME280;4328;48.622;9.230;2022-08-21T03:07:12;98107.53;;;16.25;72.03
8581;BME280;4328;48.622;9.230;2022-08-21T03:09:38;98116.25;;;16.15;72.13
8581;BME280;4328;48.622;9.230;2022-08-21T03:12:05;98114.16;;;16.11;72.12
8581;BME280;4328;48.622;9.230;2022-08-21T03:14:32;98115.06;;;16.05;72.22
8581;BME280;4328;48.622;9.230;2022-08-21T03:16:59;98116.72;;;16.06;72.59
8581;BME280;4328;48.622;9.230;2022-08-21T03:19:25;98113.59;;;16.02;72.17
8581;BME280;4328;48.622;9.230;2022-08-21T03:21:53;98110.25;;;16.00;72.07
8581;BME280;4328;48.622;9.230;2022-08-21T03:24:20;98116.22;;;15.91;72.63
8581;BME280;4328;48.622;9.230;2022-08-21T03:26:46;98124.06;;;15.80;72.81
8581;BME280;4328;48.622;9.230;2022-08-21T03:29:13;98126.63;;;15.75;72.88
8581;BME280;4328;48.622;9.230;2022-08-21T03:31:40;98119.69;;;15.73;73.36
8581;BME280;4328;48.622;9.230;2022-08-21T03:34:06;98119.47;;;15.74;73.16
8581;BME280;4328;48.622;9.230;2022-08-21T03:36:33;98121.56;;;15.79;73.00
8581;BME280;4328;48.622;9.230;2022-08-21T03:39:02;98126.97;;;15.85;72.78
8581;BME280;4328;48.622;9.230;2022-08-21T03:41:29;98124.22;;;15.85;72.33
8581;BME280;4328;48.622;9.230;2022-08-21T03:43:55;98125.50;;;15.83;72.70
8581;BME280;4328;48.622;9.230;2022-08-21T03:46:22;98133.13;;;15.81;72.29
8581;BME280;4328;48.622;9.230;2022-08-21T03:48:49;98122.41;;;15.79;72.45
8581;BME280;4328;48.622;9.230;2022-08-21T03:51:17;98124.50;;;15.77;71.93
8581;BME280;4328;48.622;9.230;2022-08-21T03:53:43;98132.50;;;15.79;72.40
8581;BME280;4328;48.622;9.230;2022-08-21T03:56:11;98133.53;;;15.78;72.12
8581;BME280;4328;48.622;9.230;2022-08-21T03:58:38;98130.63;;;15.73;72.55
8581;BME280;4328;48.622;9.230;2022-08-21T04:01:05;98123.66;;;15.77;72.09
8581;BME280;4328;48.622;9.230;2022-08-21T04:03:35;98138.59;;;15.74;71.80
8581;BME280;4328;48.622;9.230;2022-08-21T04:06:02;98135.25;;;15.72;72.02
8581;BME280;4328;48.622;9.230;2022-08-21T04:08:29;98107.63;;;15.56;71.64
8581;BME280;4328;48.622;9.230;2022-08-21T04:10:58;98138.19;;;15.77;72.11
8581;BME280;4328;48.622;9.230;2022-08-21T04:13:26;98135.16;;;15.85;71.79
8581;BME280;4328;48.622;9.230;2022-08-21T04:15:53;98139.22;;;15.76;71.26
8581;BME280;4328;48.622;9.230;2022-08-21T04:18:20;98140.00;;;15.83;71.57
8581;BME280;4328;48.622;9.230;2022-08-21T04:20:50;98138.13;;;15.84;71.46
8581;BME280;4328;48.622;9.230;2022-08-21T04:23:18;98136.44;;;15.83;71.15
8581;BME280;4328;48.622;9.230;2022-08-21T04:25:46;98138.97;;;15.84;71.57
8581;BME280;4328;48.622;9.230;2022-08-21T04:28:12;98140.41;;;15.87;71.13
8581;BME280;4328;48.622;9.230;2022-08-21T04:30:41;98141.44;;;15.93;71.17
8581;BME280;4328;48.622;9.230;2022-08-21T04:33:07;98156.41;;;15.90;71.25
8581;BME280;4328;48.622;9.230;2022-08-21T04:35:34;98161.44;;;15.86;70.83
8581;BME280;4328;48.622;9.230;2022-08-21T04:38:01;98155.63;;;15.76;71.35
8581;BME280;4328;48.622;9.230;2022-08-21T04:40:28;98164.28;;;15.73;71.51
8581;BME280;4328;48.622;9.230;2022-08-21T04:42:56;98167.84;;;15.74;71.68
8581;BME280;4328;48.622;9.230;2022-08-21T04:45:27;98168.69;;;15.74;71.62
8581;BME280;4328;48.622;9.230;2022-08-21T04:47:57;98159.16;;;15.83;71.52
8581;BME280;4328;48.622;9.230;2022-08-21T04:50:26;98144.34;;;15.66;71.38
8581;BME280;4328;48.622;9.230;2022-08-21T04:52:54;98160.44;;;15.81;71.56
8581;BME280;4328;48.622;9.230;2022-08-21T04:55:22;98158.31;;;15.83;71.95
8581;BME280;4328;48.622;9.230;2022-08-21T04:57:52;98157.03;;;15.85;71.81
8581;BME280;4328;48.622;9.230;2022-08-21T05:00:20;98170.00;;;15.97;71.41
8581;BME280;4328;48.622;9.230;2022-08-21T05:02:50;98163.91;;;15.95;71.08
8581;BME280;4328;48.622;9.230;2022-08-21T05:05:21;98172.13;;;15.95;71.65
8581;BME280;4328;48.622;9.230;2022-08-21T05:07:48;98171.84;;;16.34;70.08
8581;BME280;4328;48.622;9.230;2022-08-21T05:10:15;98163.72;;;16.21;71.10
8581;BME280;4328;48.622;9.230;2022-08-21T05:12:42;98168.44;;;16.14;71.17
8581;BME280;4328;48.622;9.230;2022-08-21T05:15:10;98152.25;;;16.06;71.64
8581;BME280;4328;48.622;9.230;2022-08-21T05:17:38;98175.19;;;16.36;70.67
8581;BME280;4328;48.622;9.230;2022-08-21T05:20:05;98177.72;;;16.38;70.94
8581;BME280;4328;48.622;9.230;2022-08-21T05:22:33;98175.63;;;16.33;71.60
8581;BME280;4328;48.622;9.230;2022-08-21T05:25:00;98175.47;;;16.53;70.38
8581;BME280;4328;48.622;9.230;2022-08-21T05:27:27;98179.41;;;16.64;70.35
8581;BME280;4328;48.622;9.230;2022-08-21T05:29:55;98173.84;;;16.45;71.30
8581;BME280;4328;48.622;9.230;2022-08-21T05:32:22;98189.22;;;16.46;71.58
8581;BME280;4328;48.622;9.230;2022-08-21T05:34:49;98182.81;;;16.52;71.80
8581;BME280;4328;48.622;9.230;2022-08-21T05:37:16;98184.25;;;16.61;71.57
8581;BME280;4328;48.622;9.230;2022-08-21T05:39:44;98184.66;;;16.65;71.65
8581;BME280;4328;48.622;9.230;2022-08-21T05:42:11;98183.69;;;16.78;71.55
8581;BME280;4328;48.622;9.230;2022-08-21T05:44:37;98172.59;;;16.91;70.94
8581;BME280;4328;48.622;9.230;2022-08-21T05:47:05;98187.84;;;16.87;71.78
8581;BME280;4328;48.622;9.230;2022-08-21T05:49:32;98175.41;;;17.03;71.27
8581;BME280;4328;48.622;9.230;2022-08-21T05:51:59;98183.28;;;17.17;71.17
8581;BME280;4328;48.622;9.230;2022-08-21T05:54:26;98179.31;;;17.31;70.46
8581;BME280;4328;48.622;9.230;2022-08-21T05:56:54;98188.53;;;17.37;70.44
8581;BME280;4328;48.622;9.230;2022-08-21T05:59:21;98185.72;;;17.44;70.02
8581;BME280;4328;48.622;9.230;2022-08-21T06:01:48;98140.94;;;17.13;70.61
8581;BME280;4328;48.622;9.230;2022-08-21T06:04:18;98178.09;;;17.46;70.63
8581;BME280;4328;48.622;9.230;2022-08-21T06:06:44;98176.56;;;17.50;70.36
8581;BME280;4328;48.622;9.230;2022-08-21T06:09:12;98174.72;;;17.62;70.75
8581;BME280;4328;48.622;9.230;2022-08-21T06:11:38;98178.88;;;17.83;70.58
8581;BME280;4328;48.622;9.230;2022-08-21T06:14:06;98181.28;;;18.21;69.68
8581;BME280;4328;48.622;9.230;2022-08-21T06:16:33;98177.38;;;18.28;69.21
8581;BME280;4328;48.622;9.230;2022-08-21T06:19:00;98179.63;;;18.31;69.35
8581;BME280;4328;48.622;9.230;2022-08-21T06:21:27;98174.13;;;18.31;69.16
8581;BME280;4328;48.622;9.230;2022-08-21T06:23:53;98177.63;;;18.38;68.80
8581;BME280;4328;48.622;9.230;2022-08-21T06:26:20;98184.69;;;18.46;69.32
8581;BME280;4328;48.622;9.230;2022-08-21T06:28:47;98178.31;;;18.64;68.99
8581;BME280;4328;48.622;9.230;2022-08-21T06:31:18;98176.63;;;18.86;68.34
8581;BME280;4328;48.622;9.230;2022-08-21T06:33:45;98171.00;;;18.93;68.58
8581;BME280;4328;48.622;9.230;2022-08-21T06:36:12;98172.31;;;19.02;68.17
8581;BME280;4328;48.622;9.230;2022-08-21T06:38:40;98171.72;;;19.11;68.39
8581;BME280;4328;48.622;9.230;2022-08-21T06:41:07;98171.19;;;19.26;68.13
8581;BME280;4328;48.622;9.230;2022-08-21T06:43:34;98160.94;;;19.33;68.21
8581;BME280;4328;48.622;9.230;2022-08-21T06:46:00;98167.81;;;19.47;68.25
8581;BME280;4328;48.622;9.230;2022-08-21T06:48:28;98166.34;;;19.68;67.56
8581;BME280;4328;48.622;9.230;2022-08-21T06:50:58;98138.59;;;19.70;66.95
8581;BME280;4328;48.622;9.230;2022-08-21T06:53:24;98169.03;;;20.08;67.10
8581;BME280;4328;48.622;9.230;2022-08-21T06:55:51;98163.91;;;20.29;66.36
8581;BME280;4328;48.622;9.230;2022-08-21T06:58:18;98154.44;;;20.53;66.17
8581;BME280;4328;48.622;9.230;2022-08-21T07:00:46;98161.84;;;20.86;65.63
8581;BME280;4328;48.622;9.230;2022-08-21T07:03:18;98158.69;;;21.54;65.48
8581;BME280;4328;48.622;9.230;2022-08-21T07:05:46;98153.97;;;22.89;61.36
8581;BME280;4328;48.622;9.230;2022-08-21T07:08:13;98156.63;;;23.63;58.36
8581;BME280;4328;48.622;9.230;2022-08-21T07:10:40;98149.38;;;24.70;56.34
8581;BME280;4328;48.622;9.230;2022-08-21T07:13:07;98150.13;;;25.32;54.44
8581;BME280;4328;48.622;9.230;2022-08-21T07:15:34;98148.53;;;25.05;54.59
8581;BME280;4328;48.622;9.230;2022-08-21T07:18:00;98148.53;;;24.70;55.98
8581;BME280;4328;48.622;9.230;2022-08-21T07:20:28;98152.13;;;24.30;57.02
8581;BME280;4328;48.622;9.230;2022-08-21T07:22:59;98159.50;;;23.99;57.55
8581;BME280;4328;48.622;9.230;2022-08-21T07:25:26;98150.59;;;23.76;58.79
8581;BME280;4328;48.622;9.230;2022-08-21T07:27:53;98140.00;;;23.63;59.07
8581;BME280;4328;48.622;9.230;2022-08-21T07:30:21;98140.03;;;23.68;59.50
8581;BME280;4328;48.622;9.230;2022-08-21T07:32:47;98133.06;;;23.61;59.68
8581;BME280;4328;48.622;9.230;2022-08-21T07:35:15;98132.53;;;23.59;59.51
8581;BME280;4328;48.622;9.230;2022-08-21T07:37:42;98138.06;;;23.64;60.15
8581;BME280;4328;48.622;9.230;2022-08-21T07:40:10;98133.44;;;23.80;60.64
8581;BME280;4328;48.622;9.230;2022-08-21T07:42:40;98138.44;;;23.83;61.06
8581;BME280;4328;48.622;9.230;2022-08-21T07:45:08;98136.25;;;24.00;60.52
8581;BME280;4328;48.622;9.230;2022-08-21T07:47:35;98133.50;;;24.10;60.47
8581;BME280;4328;48.622;9.230;2022-08-21T07:50:02;98134.94;;;24.33;59.86
8581;BME280;4328;48.622;9.230;2022-08-21T07:52:29;98118.88;;;24.55;59.81
8581;BME280;4328;48.622;9.230;2022-08-21T07:54:56;98133.56;;;24.81;57.86
8581;BME280;4328;48.622;9.230;2022-08-21T07:57:25;98126.88;;;25.02;57.58
8581;BME280;4328;48.622;9.230;2022-08-21T07:59:52;98122.69;;;25.20;57.02
8581;BME280;4328;48.622;9.230;2022-08-21T08:02:23;98125.16;;;25.32;55.24
8581;BME280;4328;48.622;9.230;2022-08-21T08:04:50;98112.59;;;25.49;55.15
8581;BME280;4328;48.622;9.230;2022-08-21T08:07:17;98109.16;;;25.78;53.84
8581;BME280;4328;48.622;9.230;2022-08-21T08:09:44;98111.53;;;26.00;51.90
8581;BME280;4328;48.622;9.230;2022-08-21T08:12:10;98114.47;;;26.18;50.84
8581;BME280;4328;48.622;9.230;2022-08-21T08:14:38;98110.34;;;26.55;50.92
8581;BME280;4328;48.622;9.230;2022-08-21T08:17:05;98112.47;;;26.92;50.68
8581;BME280;4328;48.622;9.230;2022-08-21T08:19:32;98103.88;;;27.41;49.70
8581;BME280;4328;48.622;9.230;2022-08-21T08:21:58;98108.56;;;28.31;48.05
8581;BME280;4328;48.622;9.230;2022-08-21T08:24:25;98100.03;;;29.06;46.49
8581;BME280;4328;48.622;9.230;2022-08-21T08:26:51;98095.75;;;30.54;43.91
8581;BME280;4328;48.622;9.230;2022-08-21T08:29:19;98093.50;;;32.14;40.60
8581;BME280;4328;48.622;9.230;2022-08-21T08:31:47;98087.59;;;34.28;38.55
8581;BME280;4328;48.622;9.230;2022-08-21T08:34:14;98071.69;;;35.92;35.61
8581;BME280;4328;48.622;9.230;2022-08-21T08:36:40;98074.06;;;36.98;34.53
8581;BME280;4328;48.622;9.230;2022-08-21T08:39:07;98067.09;;;38.56;31.73
8581;BME280;4328;48.622;9.230;2022-08-21T08:41:33;98067.34;;;39.55;31.31
8581;BME280;4328;48.622;9.230;2022-08-21T08:44:04;98060.31;;;40.21;30.25
8581;BME280;4328;48.622;9.230;2022-08-21T08:46:36;98055.28;;;41.04;29.56
8581;BME280;4328;48.622;9.230;2022-08-21T08:49:11;98026.91;;;42.06;28.80
8581;BME280;4328;48.622;9.230;2022-08-21T08:51:47;64081.09;;;-143.67;100.00
8581;BME280;4328;48.622;9.230;2022-08-21T08:54:20;64081.09;;;-143.67;100.00
8581;BME280;4328;48.622;9.230;2022-08-21T08:56:49;64081.09;;;-143.67;100.00
8581;BME280;4328;48.622;9.230;2022-08-21T08:59:20;64081.09;;;-143.67;100.00
8581;BME280;4328;48.622;9.230;2022-08-21T09:01:49;64081.09;;;-143.67;100.00
8581;BME280;4328;48.622;9.230;2022-08-21T09:04:21;64081.09;;;-143.67;100.00
8581;BME280;4328;48.622;9.230;2022-08-21T09:06:58;64081.09;;;-143.67;100.00
8581;BME280;4328;48.622;9.230;2022-08-21T09:09:42;64081.09;;;-143.67;100.00
8581;BME280;4328;48.622;9.230;2022-08-21T09:12:17;64081.09;;;-143.67;100.00
8581;BME280;4328;48.622;9.230;2022-08-21T09:14:54;64081.09;;;-143.67;100.00
8581;BME280;4328;48.622;9.230;2022-08-21T09:17:39;64081.09;;;-143.67;100.00
8581;BME280;4328;48.622;9.230;2022-08-21T09:20:17;98026.91;;;42.06;28.80
8581;BME280;4328;48.622;9.230;2022-08-21T09:22:55;98007.28;;;47.39;22.01
8581;BME280;4328;48.622;9.230;2022-08-21T09:25:25;98007.28;;;47.39;22.01
8581;BME280;4328;48.622;9.230;2022-08-21T09:27:53;97999.16;;;47.81;21.13
8581;BME280;4328;48.622;9.230;2022-08-21T09:30:25;97994.75;;;47.26;21.46
8581;BME280;4328;48.622;9.230;2022-08-21T09:32:53;97994.72;;;46.72;21.65
8581;BME280;4328;48.622;9.230;2022-08-21T09:35:22;97998.88;;;45.96;21.62
8581;BME280;4328;48.622;9.230;2022-08-21T09:37:52;97995.41;;;45.26;22.07
8581;BME280;4328;48.622;9.230;2022-08-21T09:40:31;97995.34;;;44.63;22.01
8581;BME280;4328;48.622;9.230;2022-08-21T09:43:00;97996.13;;;44.75;22.44
8581;BME280;4328;48.622;9.230;2022-08-21T09:45:28;97999.66;;;43.81;22.51
8581;BME280;4328;48.622;9.230;2022-08-21T09:47:55;97996.75;;;42.88;23.04
8581;BME280;4328;48.622;9.230;2022-08-21T09:50:26;98001.28;;;41.52;24.51
8581;BME280;4328;48.622;9.230;2022-08-21T09:52:55;97998.56;;;39.39;25.38
8581;BME280;4328;48.622;9.230;2022-08-21T09:55:31;97997.69;;;37.26;27.28
8581;BME280;4328;48.622;9.230;2022-08-21T09:58:16;97996.72;;;35.42;27.43
8581;BME280;4328;48.622;9.230;2022-08-21T10:00:44;64081.09;;;-143.67;100.00
8581;BME280;4328;48.622;9.230;2022-08-21T10:03:14;64081.09;;;-143.67;100.00
8581;BME280;4328;48.622;9.230;2022-08-21T10:05:54;97996.69;;;32.89;32.56
8581;BME280;4328;48.622;9.230;2022-08-21T10:08:23;97991.38;;;32.24;34.24
8581;BME280;4328;48.622;9.230;2022-08-21T10:10:54;97999.28;;;31.96;34.59
8581;BME280;4328;48.622;9.230;2022-08-21T10:13:29;97994.50;;;32.05;35.62
8581;BME280;4328;48.622;9.230;2022-08-21T10:16:07;97989.56;;;31.85;35.34
8581;BME280;4328;48.622;9.230;2022-08-21T10:18:40;97954.03;;;31.54;35.50
8581;BME280;4328;48.622;9.230;2022-08-21T10:21:16;97983.28;;;31.97;34.93
8581;BME280;4328;48.622;9.230;2022-08-21T10:23:57;97978.44;;;31.45;34.56
8581;BME280;4328;48.622;9.230;2022-08-21T10:26:34;97978.06;;;31.30;34.29
8581;BME280;4328;48.622;9.230;2022-08-21T10:29:12;97970.34;;;30.96;35.33
8581;BME280;4328;48.622;9.230;2022-08-21T10:31:49;97973.28;;;31.30;36.15
8581;BME280;4328;48.622;9.230;2022-08-21T10:34:28;97972.81;;;30.97;35.92
8581;BME280;4328;48.622;9.230;2022-08-21T10:37:11;97963.91;;;30.86;36.46
8581;BME280;4328;48.622;9.230;2022-08-21T10:39:49;97971.06;;;30.70;35.51
8581;BME280;4328;48.622;9.230;2022-08-21T10:42:33;97973.47;;;30.55;36.04
8581;BME280;4328;48.622;9.230;2022-08-21T10:45:09;97965.06;;;30.32;36.84
8581;BME280;4328;48.622;9.230;2022-08-21T10:47:42;97970.69;;;30.32;37.53
8581;BME280;4328;48.622;9.230;2022-08-21T10:50:19;97964.50;;;30.22;37.44
8581;BME280;4328;48.622;9.230;2022-08-21T10:53:03;97962.41;;;30.05;37.37
8581;BME280;4328;48.622;9.230;2022-08-21T10:55:34;97959.28;;;30.29;36.98
8581;BME280;4328;48.622;9.230;2022-08-21T10:58:05;97954.34;;;30.57;37.27
8581;BME280;4328;48.622;9.230;2022-08-21T11:00:39;97954.91;;;30.45;35.93
8581;BME280;4328;48.622;9.230;2022-08-21T11:03:11;97944.66;;;30.09;35.44
8581;BME280;4328;48.622;9.230;2022-08-21T11:05:43;97949.59;;;29.90;37.05
8581;BME280;4328;48.622;9.230;2022-08-21T11:08:17;97952.06;;;30.05;36.98
8581;BME280;4328;48.622;9.230;2022-08-21T11:10:47;97947.00;;;29.94;37.30
8581;BME280;4328;48.622;9.230;2022-08-21T11:13:21;97949.47;;;29.73;37.00
8581;BME280;4328;48.622;9.230;2022-08-21T11:15:55;97932.00;;;29.67;37.82
8581;BME280;4328;48.622;9.230;2022-08-21T11:18:26;97944.72;;;29.37;37.75
8581;BME280;4328;48.622;9.230;2022-08-21T11:21:01;97936.53;;;29.27;37.99
8581;BME280;4328;48.622;9.230;2022-08-21T11:23:37;97939.97;;;29.38;38.48
8581;BME280;4328;48.622;9.230;2022-08-21T11:26:09;97930.84;;;29.68;38.35
8581;BME280;4328;48.622;9.230;2022-08-21T11:28:43;97941.97;;;29.60;38.12
8581;BME280;4328;48.622;9.230;2022-08-21T11:31:21;97932.50;;;29.33;38.12
8581;BME280;4328;48.622;9.230;2022-08-21T11:34:01;97936.13;;;29.48;38.36
8581;BME280;4328;48.622;9.230;2022-08-21T11:36:38;97937.75;;;29.35;37.48
8581;BME280;4328;48.622;9.230;2022-08-21T11:39:16;97933.03;;;29.08;38.57
8581;BME280;4328;48.622;9.230;2022-08-21T11:41:50;97930.47;;;28.98;37.63
8581;BME280;4328;48.622;9.230;2022-08-21T11:44:28;97930.59;;;28.79;38.44
8581;BME280;4328;48.622;9.230;2022-08-21T11:47:05;97923.13;;;28.74;38.13
8581;BME280;4328;48.622;9.230;2022-08-21T11:49:45;97927.78;;;28.65;38.58
8581;BME280;4328;48.622;9.230;2022-08-21T11:52:16;97922.19;;;28.93;39.81
8581;BME280;4328;48.622;9.230;2022-08-21T11:54:49;97927.22;;;29.18;38.99
8581;BME280;4328;48.622;9.230;2022-08-21T11:57:22;97911.38;;;29.27;38.20
8581;BME280;4328;48.622;9.230;2022-08-21T11:59:53;97920.28;;;29.29;36.78
8581;BME280;4328;48.622;9.230;2022-08-21T12:02:25;97915.66;;;29.25;37.43
8581;BME280;4328;48.622;9.230;2022-08-21T12:04:58;97911.44;;;29.14;36.64
8581;BME280;4328;48.622;9.230;2022-08-21T12:07:32;97919.91;;;29.22;37.19
8581;BME280;4328;48.622;9.230;2022-08-21T12:10:02;97911.97;;;29.52;38.04
8581;BME280;4328;48.622;9.230;2022-08-21T12:12:31;97912.63;;;29.49;37.43
8581;BME280;4328;48.622;9.230;2022-08-21T12:15:14;97907.59;;;29.23;37.06
8581;BME280;4328;48.622;9.230;2022-08-21T12:17:53;97906.88;;;29.18;37.38
8581;BME280;4328;48.622;9.230;2022-08-21T12:20:32;97877.94;;;29.14;37.72
8581;BME280;4328;48.622;9.230;2022-08-21T12:23:04;97906.72;;;29.36;37.90
8581;BME280;4328;48.622;9.230;2022-08-21T12:25:39;97901.56;;;29.43;37.68
8581;BME280;4328;48.622;9.230;2022-08-21T12:28:08;97899.91;;;29.42;38.00
8581;BME280;4328;48.622;9.230;2022-08-21T12:30:37;97886.56;;;29.39;37.77
8581;BME280;4328;48.622;9.230;2022-08-21T12:33:18;97884.38;;;29.50;36.50
8581;BME280;4328;48.622;9.230;2022-08-21T12:35:47;97880.94;;;29.53;36.64
8581;BME280;4328;48.622;9.230;2022-08-21T12:38:18;97881.34;;;29.60;36.12
8581;BME280;4328;48.622;9.230;2022-08-21T12:40:52;97865.75;;;29.45;36.12
8581;BME280;4328;48.622;9.230;2022-08-21T12:43:23;97870.22;;;29.47;36.51
8581;BME280;4328;48.622;9.230;2022-08-21T12:45:51;97867.94;;;29.49;36.01
8581;BME280;4328;48.622;9.230;2022-08-21T12:48:22;64081.09;;;-143.67;100.00
8581;BME280;4328;48.622;9.230;2022-08-21T12:50:53;64081.09;;;-143.67;100.00
8581;BME280;4328;48.622;9.230;2022-08-21T12:53:28;64081.09;;;-143.67;100.00
8581;BME280;4328;48.622;9.230;2022-08-21T12:56:01;64081.09;;;-143.67;100.00
8581;BME280;4328;48.622;9.230;2022-08-21T12:58:30;64081.09;;;-143.67;100.00
8581;BME280;4328;48.622;9.230;2022-08-21T13:01:06;64081.09;;;-143.67;100.00
8581;BME280;4328;48.622;9.230;2022-08-21T13:03:36;64081.09;;;-143.67;100.00
8581;BME280;4328;48.622;9.230;2022-08-21T13:06:05;64081.09;;;-143.67;100.00
8581;BME280;4328;48.622;9.230;2022-08-21T13:08:33;64081.09;;;-143.67;100.00
8581;BME280;4328;48.622;9.230;2022-08-21T13:11:05;64081.09;;;-143.67;100.00
8581;BME280;4328;48.622;9.230;2022-08-21T13:13:32;64081.09;;;-143.67;100.00
8581;BME280;4328;48.622;9.230;2022-08-21T13:16:02;64081.09;;;-143.67;100.00
8581;BME280;4328;48.622;9.230;2022-08-21T13:18:31;64081.09;;;-143.67;100.00
8581;BME280;4328;48.622;9.230;2022-08-21T13:21:07;64081.09;;;-143.67;100.00
8581;BME280;4328;48.622;9.230;2022-08-21T13:23:36;64081.09;;;-143.67;100.00
8581;BME280;4328;48.622;9.230;2022-08-21T13:26:13;64081.09;;;-143.67;100.00
8581;BME280;4328;48.622;9.230;2022-08-21T13:28:40;64081.09;;;-143.67;100.00
8581;BME280;4328;48.622;9.230;2022-08-21T13:31:08;64081.09;;;-143.67;100.00
8581;BME280;4328;48.622;9.230;2022-08-21T13:33:37;64081.09;;;-143.67;100.00